sensor_id;sensor_type;location;lat;lon;timestamp;pressure;altitude;pressure_sealevel;temperature;humidity
31717;BME280;18301;51.076;17.046;2023-01-25T00:00:23;102275.31;;;4.58;89.23
31717;BME280;18301;51.076;17.046;2023-01-25T00:05:24;102275.22;;;4.63;89.09
31717;BME280;18301;51.076;17.046;2023-01-25T00:10:26;102273.38;;;4.66;89.26
31717;BME280;18301;51.076;17.046;2023-01-25T00:15:27;102269.78;;;4.67;88.72
31717;BME280;18301;51.076;17.046;2023-01-25T00:20:28;102260.06;;;4.63;88.94
31717;BME280;18301;51.076;17.046;2023-01-25T00:25:30;102260.19;;;4.57;88.83
31717;BME280;18301;51.076;17.046;2023-01-25T00:30:31;102260.13;;;4.60;89.06
31717;BME280;18301;51.076;17.046;2023-01-25T00:35:33;102257.38;;;4.63;88.77
31717;BME280;18301;51.076;17.046;2023-01-25T00:40:34;102249.47;;;4.57;88.92
31717;BME280;18301;51.076;17.046;2023-01-25T00:45:36;102237.03;;;4.56;88.27
31717;BME280;18301;51.076;17.046;2023-01-25T00:50:37;102243.97;;;4.66;88.77
31717;BME280;18301;51.076;17.046;2023-01-25T00:55:39;102243.97;;;4.65;88.10
31717;BME280;18301;51.076;17.046;2023-01-25T01:00:40;102244.25;;;4.51;88.60
31717;BME280;18301;51.076;17.046;2023-01-25T01:05:42;102238.78;;;4.57;88.11
31717;BME280;18301;51.076;17.046;2023-01-25T01:10:43;102226.22;;;4.62;88.37
31717;BME280;18301;51.076;17.046;2023-01-25T01:15:44;102211.94;;;4.63;88.08
31717;BME280;18301;51.076;17.046;2023-01-25T01:20:50;102210.06;;;4.68;87.98
31717;BME280;18301;51.076;17.046;2023-01-25T01:25:52;102193.34;;;4.57;88.03
31717;BME280;18301;51.076;17.046;2023-01-25T01:30:58;102187.00;;;4.61;87.63
31717;BME280;18301;51.076;17.046;2023-01-25T01:36:12;102177.16;;;4.63;87.50
31717;BME280;18301;51.076;17.046;2023-01-25T01:41:15;102176.31;;;4.61;88.15
31717;BME280;18301;51.076;17.046;2023-01-25T01:46:33;102186.09;;;4.62;87.46
31717;BME280;18301;51.076;17.046;2023-01-25T01:51:45;102178.09;;;4.62;87.24
31717;BME280;18301;51.076;17.046;2023-01-25T02:01:55;102168.53;;;4.50;86.59
31717;BME280;18301;51.076;17.046;2023-01-25T02:07:02;102163.84;;;4.60;87.44
31717;BME280;18301;51.076;17.046;2023-01-25T02:12:06;102153.34;;;4.51;87.44
31717;BME280;18301;51.076;17.046;2023-01-25T02:17:10;102162.22;;;4.53;87.59
31717;BME280;18301;51.076;17.046;2023-01-25T02:22:13;102163.84;;;4.60;86.70
31717;BME280;18301;51.076;17.046;2023-01-25T02:27:17;102169.56;;;4.42;87.45
31717;BME280;18301;51.076;17.046;2023-01-25T02:32:19;102163.44;;;4.36;87.55
31717;BME280;18301;51.076;17.046;2023-01-25T02:37:20;102164.97;;;4.48;87.13
31717;BME280;18301;51.076;17.046;2023-01-25T02:42:22;102160.38;;;4.55;86.96
31717;BME280;18301;51.076;17.046;2023-01-25T02:47:23;102156.88;;;4.53;87.06
31717;BME280;18301;51.076;17.046;2023-01-25T02:52:24;102157.06;;;4.44;87.13
31717;BME280;18301;51.076;17.046;2023-01-25T02:57:26;102158.94;;;4.38;87.24
31717;BME280;18301;51.076;17.046;2023-01-25T03:02:27;102161.56;;;4.42;86.58
31717;BME280;18301;51.076;17.046;2023-01-25T03:07:29;102151.78;;;4.41;86.52
31717;BME280;18301;51.076;17.046;2023-01-25T03:12:30;102152.97;;;4.24;86.80
31717;BME280;18301;51.076;17.046;2023-01-25T03:17:32;102141.34;;;4.28;87.00
31717;BME280;18301;51.076;17.046;2023-01-25T03:22:33;102129.38;;;4.46;86.39
31717;BME280;18301;51.076;17.046;2023-01-25T03:27:35;102144.13;;;4.22;86.78
31717;BME280;18301;51.076;17.046;2023-01-25T03:32:36;102138.59;;;4.31;85.59
31717;BME280;18301;51.076;17.046;2023-01-25T03:37:38;102134.44;;;4.15;86.97
31717;BME280;18301;51.076;17.046;2023-01-25T03:42:39;102125.50;;;4.19;87.61
31717;BME280;18301;51.076;17.046;2023-01-25T03:47:41;102119.06;;;4.28;87.60
31717;BME280;18301;51.076;17.046;2023-01-25T03:52:42;102123.41;;;4.33;87.08
31717;BME280;18301;51.076;17.046;2023-01-25T03:57:46;102121.41;;;4.45;86.71
31717;BME280;18301;51.076;17.046;2023-01-25T04:02:49;102114.31;;;4.44;86.16
31717;BME280;18301;51.076;17.046;2023-01-25T04:07:50;102111.19;;;4.20;86.42
31717;BME280;18301;51.076;17.046;2023-01-25T04:12:52;102104.63;;;4.36;85.98
31717;BME280;18301;51.076;17.046;2023-01-25T04:17:53;102103.91;;;4.28;86.68
31717;BME280;18301;51.076;17.046;2023-01-25T04:22:56;102096.84;;;4.24;86.67
31717;BME280;18301;51.076;17.046;2023-01-25T04:27:58;102093.09;;;4.34;86.85
31717;BME280;18301;51.076;17.046;2023-01-25T04:33:03;102080.56;;;4.36;85.46
31717;BME280;18301;51.076;17.046;2023-01-25T04:38:05;102073.66;;;4.26;86.27
31717;BME280;18301;51.076;17.046;2023-01-25T04:43:06;102078.88;;;4.32;86.14
31717;BME280;18301;51.076;17.046;2023-01-25T04:48:09;102078.09;;;4.27;86.52
31717;BME280;18301;51.076;17.046;2023-01-25T04:53:12;102079.88;;;4.28;86.70
31717;BME280;18301;51.076;17.046;2023-01-25T04:58:14;102077.19;;;4.28;86.96
31717;BME280;18301;51.076;17.046;2023-01-25T05:03:15;102071.72;;;4.34;86.87
31717;BME280;18301;51.076;17.046;2023-01-25T05:08:17;102062.72;;;4.38;86.59
31717;BME280;18301;51.076;17.046;2023-01-25T05:13:18;102058.22;;;4.41;86.72
31717;BME280;18301;51.076;17.046;2023-01-25T05:18:21;102060.84;;;4.44;86.53
31717;BME280;18301;51.076;17.046;2023-01-25T05:23:22;102063.66;;;4.36;86.40
31717;BME280;18301;51.076;17.046;2023-01-25T05:28:24;102048.34;;;4.44;86.61
31717;BME280;18301;51.076;17.046;2023-01-25T05:33:25;102052.16;;;4.32;86.84
31717;BME280;18301;51.076;17.046;2023-01-25T05:38:28;102038.72;;;4.35;87.44
31717;BME280;18301;51.076;17.046;2023-01-25T05:43:29;102043.94;;;4.40;86.20
31717;BME280;18301;51.076;17.046;2023-01-25T05:48:31;102031.59;;;4.36;86.56
31717;BME280;18301;51.076;17.046;2023-01-25T05:53:32;102037.72;;;4.39;86.88
31717;BME280;18301;51.076;17.046;2023-01-25T05:58:34;102030.63;;;4.38;86.19
31717;BME280;18301;51.076;17.046;2023-01-25T06:03:35;102039.66;;;4.34;87.10
31717;BME280;18301;51.076;17.046;2023-01-25T06:08:37;102034.16;;;4.41;86.82
31717;BME280;18301;51.076;17.046;2023-01-25T06:13:39;102026.16;;;4.39;86.80
31717;BME280;18301;51.076;17.046;2023-01-25T06:18:41;102025.44;;;4.32;86.94
31717;BME280;18301;51.076;17.046;2023-01-25T06:23:42;102022.69;;;4.34;86.47
31717;BME280;18301;51.076;17.046;2023-01-25T06:28:45;102019.22;;;4.30;86.67
31717;BME280;18301;51.076;17.046;2023-01-25T06:33:49;102031.69;;;4.31;86.69
31717;BME280;18301;51.076;17.046;2023-01-25T06:38:51;102030.84;;;4.29;86.88
31717;BME280;18301;51.076;17.046;2023-01-25T06:43:53;102024.44;;;4.36;86.66
31717;BME280;18301;51.076;17.046;2023-01-25T06:48:56;102018.19;;;4.37;86.68
31717;BME280;18301;51.076;17.046;2023-01-25T06:54:01;102021.75;;;4.36;85.59
31717;BME280;18301;51.076;17.046;2023-01-25T06:59:03;102011.41;;;4.21;85.82
31717;BME280;18301;51.076;17.046;2023-01-25T07:04:04;102006.06;;;4.21;86.34
31717;BME280;18301;51.076;17.046;2023-01-25T07:09:10;101996.16;;;4.26;86.31
31717;BME280;18301;51.076;17.046;2023-01-25T07:14:12;102001.66;;;4.20;86.56
31717;BME280;18301;51.076;17.046;2023-01-25T07:19:14;101996.94;;;4.31;86.23
31717;BME280;18301;51.076;17.046;2023-01-25T07:24:17;101994.22;;;4.34;86.18
31717;BME280;18301;51.076;17.046;2023-01-25T07:29:20;101992.28;;;4.41;86.31
31717;BME280;18301;51.076;17.046;2023-01-25T07:34:21;101989.63;;;4.39;86.61
31717;BME280;18301;51.076;17.046;2023-01-25T07:39:23;101985.91;;;4.47;85.99
31717;BME280;18301;51.076;17.046;2023-01-25T07:44:25;101987.00;;;4.38;85.97
31717;BME280;18301;51.076;17.046;2023-01-25T07:49:26;101988.88;;;4.34;86.35
31717;BME280;18301;51.076;17.046;2023-01-25T07:54:28;101979.91;;;4.35;86.46
31717;BME280;18301;51.076;17.046;2023-01-25T07:59:29;101979.19;;;4.27;86.33
31717;BME280;18301;51.076;17.046;2023-01-25T08:04:32;101969.59;;;4.19;86.31
31717;BME280;18301;51.076;17.046;2023-01-25T08:09:33;101964.44;;;4.09;87.40
31717;BME280;18301;51.076;17.046;2023-01-25T08:14:35;101955.00;;;3.95;87.27
31717;BME280;18301;51.076;17.046;2023-01-25T08:19:38;101955.75;;;4.01;87.18
31717;BME280;18301;51.076;17.046;2023-01-25T08:24:40;101968.19;;;4.02;87.53
31717;BME280;18301;51.076;17.046;2023-01-25T08:29:41;101950.19;;;4.10;87.06
31717;BME280;18301;51.076;17.046;2023-01-25T08:34:42;101954.47;;;4.19;87.22
31717;BME280;18301;51.076;17.046;2023-01-25T08:39:44;101962.38;;;4.24;86.82
31717;BME280;18301;51.076;17.046;2023-01-25T08:44:45;101950.81;;;4.23;87.19
31717;BME280;18301;51.076;17.046;2023-01-25T08:49:47;101939.03;;;4.32;86.13
31717;BME280;18301;51.076;17.046;2023-01-25T08:54:49;101938.09;;;4.34;86.70
31717;BME280;18301;51.076;17.046;2023-01-25T08:59:50;101917.34;;;4.44;86.24
31717;BME280;18301;51.076;17.046;2023-01-25T09:04:52;101906.31;;;4.58;85.80
31717;BME280;18301;51.076;17.046;2023-01-25T09:09:53;101905.50;;;4.56;85.72
31717;BME280;18301;51.076;17.046;2023-01-25T09:14:55;101906.22;;;4.61;85.99
31717;BME280;18301;51.076;17.046;2023-01-25T09:19:56;101907.03;;;4.65;86.17
31717;BME280;18301;51.076;17.046;2023-01-25T09:24:57;101913.47;;;4.57;86.29
31717;BME280;18301;51.076;17.046;2023-01-25T09:29:59;101912.44;;;4.63;86.18
31717;BME280;18301;51.076;17.046;2023-01-25T09:35:04;101906.16;;;4.64;86.17
31717;BME280;18301;51.076;17.046;2023-01-25T09:40:19;101892.47;;;4.76;85.78
31717;BME280;18301;51.076;17.046;2023-01-25T09:45:31;101882.00;;;4.67;85.62
31717;BME280;18301;51.076;17.046;2023-01-25T09:50:34;101878.69;;;4.57;85.75
31717;BME280;18301;51.076;17.046;2023-01-25T09:55:36;101874.91;;;4.66;85.71
31717;BME280;18301;51.076;17.046;2023-01-25T10:00:44;101861.41;;;4.71;85.70
31717;BME280;18301;51.076;17.046;2023-01-25T10:05:49;101855.09;;;4.73;85.50
31717;BME280;18301;51.076;17.046;2023-01-25T10:11:01;101849.84;;;4.70;85.64
31717;BME280;18301;51.076;17.046;2023-01-25T10:16:11;101849.84;;;4.70;84.68
31717;BME280;18301;51.076;17.046;2023-01-25T10:21:30;101857.03;;;4.68;85.04
31717;BME280;18301;51.076;17.046;2023-01-25T10:26:35;101833.00;;;4.67;85.36
31717;BME280;18301;51.076;17.046;2023-01-25T10:31:45;101833.78;;;4.70;85.49
31717;BME280;18301;51.076;17.046;2023-01-25T10:36:57;101825.59;;;4.78;85.85
31717;BME280;18301;51.076;17.046;2023-01-25T10:42:08;101830.06;;;4.77;84.01
31717;BME280;18301;51.076;17.046;2023-01-25T10:47:28;101824.06;;;4.68;84.63
31717;BME280;18301;51.076;17.046;2023-01-25T10:52:31;101828.59;;;4.64;84.55
31717;BME280;18301;51.076;17.046;2023-01-25T10:57:34;101811.66;;;4.65;85.21
31717;BME280;18301;51.076;17.046;2023-01-25T11:02:44;101809.69;;;4.72;85.23
31717;BME280;18301;51.076;17.046;2023-01-25T11:07:47;101804.03;;;4.82;84.73
31717;BME280;18301;51.076;17.046;2023-01-25T11:18:25;101785.22;;;4.87;84.29
31717;BME280;18301;51.076;17.046;2023-01-25T11:23:28;101780.66;;;4.91;83.88
31717;BME280;18301;51.076;17.046;2023-01-25T11:28:32;101760.44;;;4.48;83.01
31717;BME280;18301;51.076;17.046;2023-01-25T11:33:33;101751.91;;;4.66;83.48
31717;BME280;18301;51.076;17.046;2023-01-25T11:38:36;101735.00;;;4.66;83.59
31717;BME280;18301;51.076;17.046;2023-01-25T11:44:01;101724.22;;;4.69;83.53
31717;BME280;18301;51.076;17.046;2023-01-25T11:49:52;101702.59;;;4.76;83.61
31717;BME280;18301;51.076;17.046;2023-01-25T12:11:10;101674.84;;;4.49;84.46
31717;BME280;18301;51.076;17.046;2023-01-25T12:16:21;101669.84;;;4.68;83.92
31717;BME280;18301;51.076;17.046;2023-01-25T12:21:47;101658.16;;;4.72;84.03
31717;BME280;18301;51.076;17.046;2023-01-25T12:27:28;101639.81;;;4.90;83.49
31717;BME280;18301;51.076;17.046;2023-01-25T12:33:07;101634.00;;;5.03;82.73
31717;BME280;18301;51.076;17.046;2023-01-25T12:38:23;101620.78;;;4.99;81.75
31717;BME280;18301;51.076;17.046;2023-01-25T12:43:31;101620.44;;;4.81;82.57
31717;BME280;18301;51.076;17.046;2023-01-25T12:48:37;101617.75;;;4.81;82.55
31717;BME280;18301;51.076;17.046;2023-01-25T12:53:44;101606.91;;;4.56;82.30
31717;BME280;18301;51.076;17.046;2023-01-25T12:58:54;101597.47;;;4.45;83.27
31717;BME280;18301;51.076;17.046;2023-01-25T13:04:02;101602.97;;;4.38;83.61
31717;BME280;18301;51.076;17.046;2023-01-25T13:09:19;101594.72;;;4.46;83.13
31717;BME280;18301;51.076;17.046;2023-01-25T13:14:37;101593.50;;;4.58;83.43
31717;BME280;18301;51.076;17.046;2023-01-25T13:19:40;101575.44;;;4.66;83.37
31717;BME280;18301;51.076;17.046;2023-01-25T13:30:32;101571.78;;;4.69;82.62
31717;BME280;18301;51.076;17.046;2023-01-25T13:35:37;101564.53;;;4.72;82.98
31717;BME280;18301;51.076;17.046;2023-01-25T13:40:39;101560.47;;;4.89;82.52
31717;BME280;18301;51.076;17.046;2023-01-25T13:45:42;101558.72;;;4.88;82.34
31717;BME280;18301;51.076;17.046;2023-01-25T13:50:47;101551.81;;;4.80;82.64
31717;BME280;18301;51.076;17.046;2023-01-25T13:55:52;101552.50;;;4.87;82.34
31717;BME280;18301;51.076;17.046;2023-01-25T14:05:59;101560.56;;;4.85;82.61
31717;BME280;18301;51.076;17.046;2023-01-25T14:11:03;101545.47;;;4.83;82.19
31717;BME280;18301;51.076;17.046;2023-01-25T14:16:08;101549.81;;;4.87;81.89
31717;BME280;18301;51.076;17.046;2023-01-25T14:21:13;101528.47;;;4.85;81.57
31717;BME280;18301;51.076;17.046;2023-01-25T14:26:19;101533.41;;;4.98;81.47
31717;BME280;18301;51.076;17.046;2023-01-25T14:31:24;101517.75;;;4.85;81.84
31717;BME280;18301;51.076;17.046;2023-01-25T14:36:28;101512.69;;;4.78;81.80
31717;BME280;18301;51.076;17.046;2023-01-25T14:41:35;101497.72;;;4.71;82.11
31717;BME280;18301;51.076;17.046;2023-01-25T14:46:38;101492.78;;;4.87;82.10
31717;BME280;18301;51.076;17.046;2023-01-25T14:57:01;101478.97;;;4.72;81.60
31717;BME280;18301;51.076;17.046;2023-01-25T15:02:25;101470.91;;;4.46;82.17
31717;BME280;18301;51.076;17.046;2023-01-25T15:07:57;101466.72;;;4.37;82.83
31717;BME280;18301;51.076;17.046;2023-01-25T15:18:52;101445.03;;;4.46;83.16
31717;BME280;18301;51.076;17.046;2023-01-25T15:23:56;101445.00;;;4.48;83.01
31717;BME280;18301;51.076;17.046;2023-01-25T15:29:00;101438.16;;;4.39;82.93
31717;BME280;18301;51.076;17.046;2023-01-25T15:34:02;101436.72;;;4.27;83.05
31717;BME280;18301;51.076;17.046;2023-01-25T15:39:05;101441.47;;;4.19;84.13
31717;BME280;18301;51.076;17.046;2023-01-25T15:44:10;101427.53;;;4.08;84.13
31717;BME280;18301;51.076;17.046;2023-01-25T15:49:38;101433.16;;;3.99;83.83
31717;BME280;18301;51.076;17.046;2023-01-25T15:54:40;101415.22;;;4.04;84.44
31717;BME280;18301;51.076;17.046;2023-01-25T15:59:52;101406.81;;;3.86;85.15
31717;BME280;18301;51.076;17.046;2023-01-25T16:04:55;101402.94;;;3.97;84.97
31717;BME280;18301;51.076;17.046;2023-01-25T16:09:57;101406.47;;;3.99;85.05
31717;BME280;18301;51.076;17.046;2023-01-25T16:14:59;101394.13;;;3.95;84.97
31717;BME280;18301;51.076;17.046;2023-01-25T16:20:00;101386.78;;;4.01;85.07
31717;BME280;18301;51.076;17.046;2023-01-25T16:25:01;101374.59;;;3.92;84.82
31717;BME280;18301;51.076;17.046;2023-01-25T16:30:05;101385.97;;;3.99;85.36
31717;BME280;18301;51.076;17.046;2023-01-25T16:35:08;101382.16;;;4.06;84.50
31717;BME280;18301;51.076;17.046;2023-01-25T16:40:30;101373.25;;;4.07;84.33
31717;BME280;18301;51.076;17.046;2023-01-25T16:45:34;101368.69;;;4.11;84.59
31717;BME280;18301;51.076;17.046;2023-01-25T16:50:35;101365.56;;;3.97;84.86
31717;BME280;18301;51.076;17.046;2023-01-25T16:55:37;101355.06;;;3.90;84.70
31717;BME280;18301;51.076;17.046;2023-01-25T17:00:38;101357.72;;;3.90;84.46
31717;BME280;18301;51.076;17.046;2023-01-25T17:05:39;101346.16;;;3.91;85.07
31717;BME280;18301;51.076;17.046;2023-01-25T17:10:41;101339.03;;;3.90;85.22
31717;BME280;18301;51.076;17.046;2023-01-25T17:15:42;101335.47;;;3.91;84.90
31717;BME280;18301;51.076;17.046;2023-01-25T17:20:44;101324.69;;;3.66;85.86
31717;BME280;18301;51.076;17.046;2023-01-25T17:25:45;101319.16;;;3.73;86.12
31717;BME280;18301;51.076;17.046;2023-01-25T17:30:47;101320.63;;;3.81;86.10
31717;BME280;18301;51.076;17.046;2023-01-25T17:35:54;101311.66;;;3.84;86.22
31717;BME280;18301;51.076;17.046;2023-01-25T17:41:03;101308.56;;;3.98;85.68
31717;BME280;18301;51.076;17.046;2023-01-25T17:46:26;101310.56;;;3.91;85.93
31717;BME280;18301;51.076;17.046;2023-01-25T17:51:30;101307.19;;;3.84;86.16
31717;BME280;18301;51.076;17.046;2023-01-25T17:56:33;101298.09;;;3.63;86.75
31717;BME280;18301;51.076;17.046;2023-01-25T18:01:37;101302.59;;;3.60;86.33
31717;BME280;18301;51.076;17.046;2023-01-25T18:06:38;101275.13;;;3.58;87.16
31717;BME280;18301;51.076;17.046;2023-01-25T18:11:40;101277.50;;;3.67;87.32
31717;BME280;18301;51.076;17.046;2023-01-25T18:16:42;101275.81;;;3.63;87.83
31717;BME280;18301;51.076;17.046;2023-01-25T18:21:44;101270.56;;;3.60;87.79
31717;BME280;18301;51.076;17.046;2023-01-25T18:26:45;101263.19;;;3.69;87.98
31717;BME280;18301;51.076;17.046;2023-01-25T18:31:47;101272.78;;;3.75;88.09
31717;BME280;18301;51.076;17.046;2023-01-25T18:36:49;101264.38;;;3.87;87.54
31717;BME280;18301;51.076;17.046;2023-01-25T18:41:51;101256.63;;;3.80;87.27
31717;BME280;18301;51.076;17.046;2023-01-25T18:46:52;101249.69;;;3.74;87.72
31717;BME280;18301;51.076;17.046;2023-01-25T18:51:54;101244.88;;;3.57;87.81
31717;BME280;18301;51.076;17.046;2023-01-25T18:57:12;101231.84;;;3.75;87.62
31717;BME280;18301;51.076;17.046;2023-01-25T19:02:15;101222.84;;;3.79;87.86
31717;BME280;18301;51.076;17.046;2023-01-25T19:07:16;101205.81;;;3.81;87.66
31717;BME280;18301;51.076;17.046;2023-01-25T19:12:18;101216.31;;;3.87;87.91
31717;BME280;18301;51.076;17.046;2023-01-25T19:17:19;101207.19;;;3.95;88.00
31717;BME280;18301;51.076;17.046;2023-01-25T19:22:21;101203.78;;;3.89;87.77
31717;BME280;18301;51.076;17.046;2023-01-25T19:27:22;101189.66;;;3.86;87.88
31717;BME280;18301;51.076;17.046;2023-01-25T19:32:24;101205.16;;;3.75;87.73
31717;BME280;18301;51.076;17.046;2023-01-25T19:37:25;101198.84;;;3.77;88.20
31717;BME280;18301;51.076;17.046;2023-01-25T19:42:27;101182.94;;;3.74;87.77
31717;BME280;18301;51.076;17.046;2023-01-25T19:47:28;101189.81;;;3.81;88.69
31717;BME280;18301;51.076;17.046;2023-01-25T19:52:30;101185.47;;;3.79;87.87
31717;BME280;18301;51.076;17.046;2023-01-25T19:57:31;101173.28;;;3.70;88.80
31717;BME280;18301;51.076;17.046;2023-01-25T20:02:33;101176.25;;;3.61;89.26
31717;BME280;18301;51.076;17.046;2023-01-25T20:07:34;101167.03;;;3.71;89.07
31717;BME280;18301;51.076;17.046;2023-01-25T20:12:35;101169.56;;;3.76;89.22
31717;BME280;18301;51.076;17.046;2023-01-25T20:17:37;101154.41;;;3.76;89.01
31717;BME280;18301;51.076;17.046;2023-01-25T20:22:38;101145.47;;;3.77;89.18
31717;BME280;18301;51.076;17.046;2023-01-25T20:27:40;101142.16;;;3.69;88.77
31717;BME280;18301;51.076;17.046;2023-01-25T20:32:41;101129.66;;;3.71;88.63
31717;BME280;18301;51.076;17.046;2023-01-25T20:37:43;101122.88;;;3.61;88.59
31717;BME280;18301;51.076;17.046;2023-01-25T20:42:44;101113.75;;;3.68;89.48
31717;BME280;18301;51.076;17.046;2023-01-25T20:47:46;101099.13;;;3.78;89.14
31717;BME280;18301;51.076;17.046;2023-01-25T20:52:47;101087.88;;;3.70;88.57
31717;BME280;18301;51.076;17.046;2023-01-25T20:57:48;101088.25;;;3.84;88.62
31717;BME280;18301;51.076;17.046;2023-01-25T21:02:51;101087.66;;;3.76;89.29
31717;BME280;18301;51.076;17.046;2023-01-25T21:07:52;101076.88;;;3.79;89.00
31717;BME280;18301;51.076;17.046;2023-01-25T21:12:54;101073.88;;;3.63;88.01
31717;BME280;18301;51.076;17.046;2023-01-25T21:17:56;101079.16;;;3.65;89.14
31717;BME280;18301;51.076;17.046;2023-01-25T21:22:57;101082.97;;;3.83;88.62
31717;BME280;18301;51.076;17.046;2023-01-25T21:27:59;101087.28;;;3.87;88.44
31717;BME280;18301;51.076;17.046;2023-01-25T21:33:00;101083.63;;;3.89;88.24
31717;BME280;18301;51.076;17.046;2023-01-25T21:38:02;101082.03;;;3.84;87.60
31717;BME280;18301;51.076;17.046;2023-01-25T21:43:03;101074.75;;;3.64;88.18
31717;BME280;18301;51.076;17.046;2023-01-25T21:48:05;101076.44;;;3.66;88.10
31717;BME280;18301;51.076;17.046;2023-01-25T21:53:07;101065.59;;;3.71;88.67
31717;BME280;18301;51.076;17.046;2023-01-25T21:58:09;101066.34;;;3.75;88.76
31717;BME280;18301;51.076;17.046;2023-01-25T22:03:10;101064.50;;;3.77;88.45
31717;BME280;18301;51.076;17.046;2023-01-25T22:08:12;101069.09;;;3.73;88.16
31717;BME280;18301;51.076;17.046;2023-01-25T22:13:13;101065.78;;;3.65;88.51
31717;BME280;18301;51.076;17.046;2023-01-25T22:18:15;101056.75;;;3.69;88.27
31717;BME280;18301;51.076;17.046;2023-01-25T22:23:16;101054.59;;;3.80;88.20
31717;BME280;18301;51.076;17.046;2023-01-25T22:28:18;101046.06;;;3.69;88.16
31717;BME280;18301;51.076;17.046;2023-01-25T22:33:19;101036.00;;;3.77;88.34
31717;BME280;18301;51.076;17.046;2023-01-25T22:38:21;101031.28;;;3.85;87.75
31717;BME280;18301;51.076;17.046;2023-01-25T22:43:23;101016.03;;;3.87;87.54
31717;BME280;18301;51.076;17.046;2023-01-25T22:48:24;101002.91;;;3.81;87.66
31717;BME280;18301;51.076;17.046;2023-01-25T22:53:26;101006.41;;;3.83;87.95
31717;BME280;18301;51.076;17.046;2023-01-25T22:58:28;101000.97;;;3.86;88.27
31717;BME280;18301;51.076;17.046;2023-01-25T23:03:30;100990.19;;;3.89;87.51
31717;BME280;18301;51.076;17.046;2023-01-25T23:08:33;100987.50;;;3.89;87.21
31717;BME280;18301;51.076;17.046;2023-01-25T23:13:35;100983.84;;;3.92;87.15
31717;BME280;18301;51.076;17.046;2023-01-25T23:18:37;100977.41;;;3.98;87.13
31717;BME280;18301;51.076;17.046;2023-01-25T23:23:50;100965.19;;;3.90;86.81
31717;BME280;18301;51.076;17.046;2023-01-25T23:28:55;100955.88;;;3.79;86.96
31717;BME280;18301;51.076;17.046;2023-01-25T23:33:58;100958.13;;;3.89;86.94
31717;BME280;18301;51.076;17.046;2023-01-25T23:39:01;100944.78;;;3.89;86.75
31717;BME280;18301;51.076;17.046;2023-01-25T23:44:03;100951.94;;;3.89;87.28
31717;BME280;18301;51.076;17.046;2023-01-25T23:49:04;100947.34;;;3.92;87.06
31717;BME280;18301;51.076;17.046;2023-01-25T23:54:06;100939.31;;;3.92;87.02
31717;BME280;18301;51.076;17.046;2023-01-25T23:59:08;100940.16;;;3.95;87.25
